sensor_id;sensor_type;location;lat;lon;timestamp;P1;durP1;ratioP1;P2;durP2;ratioP2
35110;SDS011;21290;50.158;8.658;2023-06-22T00:01:13;5.63;;;5.13;;
35110;SDS011;21290;50.158;8.658;2023-06-22T00:03:40;5.63;;;4.75;;
35110;SDS011;21290;50.158;8.658;2023-06-22T00:06:07;6.18;;;5.40;;
35110;SDS011;21290;50.158;8.658;2023-06-22T00:08:33;9.57;;;5.68;;
35110;SDS011;21290;50.158;8.658;2023-06-22T00:11:00;5.95;;;5.10;;
35110;SDS011;21290;50.158;8.658;2023-06-22T00:13:27;5.50;;;4.88;;
35110;SDS011;21290;50.158;8.658;2023-06-22T00:15:53;9.65;;;5.43;;
35110;SDS011;21290;50.158;8.658;2023-06-22T00:18:20;6.30;;;5.70;;
35110;SDS011;21290;50.158;8.658;2023-06-22T00:20:46;5.72;;;5.13;;
35110;SDS011;21290;50.158;8.658;2023-06-22T00:23:13;7.47;;;5.43;;
35110;SDS011;21290;50.158;8.658;2023-06-22T00:25:41;6.53;;;5.53;;
35110;SDS011;21290;50.158;8.658;2023-06-22T00:28:08;7.78;;;5.60;;
35110;SDS011;21290;50.158;8.658;2023-06-22T00:30:35;7.75;;;5.43;;
35110;SDS011;21290;50.158;8.658;2023-06-22T00:33:02;5.47;;;4.97;;
35110;SDS011;21290;50.158;8.658;2023-06-22T00:35:29;7.47;;;5.20;;
35110;SDS011;21290;50.158;8.658;2023-06-22T00:37:56;6.20;;;5.60;;
35110;SDS011;21290;50.158;8.658;2023-06-22T00:40:27;6.63;;;5.55;;
35110;SDS011;21290;50.158;8.658;2023-06-22T00:42:55;6.10;;;5.50;;
35110;SDS011;21290;50.158;8.658;2023-06-22T00:45:25;6.22;;;5.63;;
35110;SDS011;21290;50.158;8.658;2023-06-22T00:47:52;6.30;;;5.68;;
35110;SDS011;21290;50.158;8.658;2023-06-22T00:50:21;7.90;;;6.28;;
35110;SDS011;21290;50.158;8.658;2023-06-22T00:52:53;6.57;;;5.53;;
35110;SDS011;21290;50.158;8.658;2023-06-22T00:55:25;6.38;;;5.78;;
35110;SDS011;21290;50.158;8.658;2023-06-22T00:57:52;8.02;;;5.30;;
35110;SDS011;21290;50.158;8.658;2023-06-22T01:00:23;6.93;;;5.57;;
35110;SDS011;21290;50.158;8.658;2023-06-22T01:02:51;6.53;;;5.53;;
35110;SDS011;21290;50.158;8.658;2023-06-22T01:05:19;6.60;;;5.57;;
35110;SDS011;21290;50.158;8.658;2023-06-22T01:10:25;6.20;;;5.60;;
35110;SDS011;21290;50.158;8.658;2023-06-22T01:13:08;7.53;;;5.60;;
35110;SDS011;21290;50.158;8.658;2023-06-22T01:15:45;6.50;;;5.80;;
35110;SDS011;21290;50.158;8.658;2023-06-22T01:18:17;8.68;;;6.72;;
35110;SDS011;21290;50.158;8.658;2023-06-22T01:20:45;7.53;;;5.90;;
35110;SDS011;21290;50.158;8.658;2023-06-22T01:29:08;7.53;;;6.57;;
35110;SDS011;21290;50.158;8.658;2023-06-22T01:31:38;9.95;;;7.10;;
35110;SDS011;21290;50.158;8.658;2023-06-22T01:34:06;10.18;;;7.20;;
35110;SDS011;21290;50.158;8.658;2023-06-22T01:36:35;7.85;;;7.05;;
35110;SDS011;21290;50.158;8.658;2023-06-22T01:39:03;9.03;;;7.77;;
35110;SDS011;21290;50.158;8.658;2023-06-22T01:41:33;11.17;;;7.80;;
35110;SDS011;21290;50.158;8.658;2023-06-22T01:44:03;11.00;;;8.55;;
35110;SDS011;21290;50.158;8.658;2023-06-22T01:46:32;10.00;;;8.00;;
35110;SDS011;21290;50.158;8.658;2023-06-22T01:49:01;9.40;;;7.93;;
35110;SDS011;21290;50.158;8.658;2023-06-22T01:51:28;9.43;;;8.43;;
35110;SDS011;21290;50.158;8.658;2023-06-22T01:53:56;10.13;;;9.07;;
35110;SDS011;21290;50.158;8.658;2023-06-22T01:56:23;11.52;;;9.02;;
35110;SDS011;21290;50.158;8.658;2023-06-22T01:58:50;9.73;;;8.52;;
35110;SDS011;21290;50.158;8.658;2023-06-22T02:01:31;9.13;;;8.20;;
35110;SDS011;21290;50.158;8.658;2023-06-22T02:04:03;11.27;;;8.18;;
35110;SDS011;21290;50.158;8.658;2023-06-22T02:06:38;13.85;;;8.77;;
35110;SDS011;21290;50.158;8.658;2023-06-22T02:09:17;9.60;;;8.48;;
35110;SDS011;21290;50.158;8.658;2023-06-22T02:11:48;11.50;;;8.93;;
35110;SDS011;21290;50.158;8.658;2023-06-22T02:14:19;10.13;;;8.57;;
35110;SDS011;21290;50.158;8.658;2023-06-22T02:16:47;12.35;;;8.65;;
35110;SDS011;21290;50.158;8.658;2023-06-22T02:19:15;12.65;;;9.38;;
35110;SDS011;21290;50.158;8.658;2023-06-22T02:21:42;11.98;;;9.27;;
35110;SDS011;21290;50.158;8.658;2023-06-22T02:24:08;11.98;;;8.75;;
35110;SDS011;21290;50.158;8.658;2023-06-22T02:26:35;12.27;;;10.00;;
35110;SDS011;21290;50.158;8.658;2023-06-22T02:29:04;11.75;;;9.38;;
35110;SDS011;21290;50.158;8.658;2023-06-22T02:31:31;10.00;;;9.00;;
35110;SDS011;21290;50.158;8.658;2023-06-22T02:33:58;11.98;;;9.40;;
35110;SDS011;21290;50.158;8.658;2023-06-22T02:36:25;17.98;;;9.77;;
35110;SDS011;21290;50.158;8.658;2023-06-22T02:38:53;10.90;;;9.02;;
35110;SDS011;21290;50.158;8.658;2023-06-22T02:41:24;17.00;;;9.95;;
35110;SDS011;21290;50.158;8.658;2023-06-22T02:43:51;11.88;;;9.27;;
35110;SDS011;21290;50.158;8.658;2023-06-22T02:46:18;11.95;;;9.63;;
35110;SDS011;21290;50.158;8.658;2023-06-22T02:48:44;12.15;;;9.75;;
35110;SDS011;21290;50.158;8.658;2023-06-22T02:51:12;10.60;;;9.23;;
35110;SDS011;21290;50.158;8.658;2023-06-22T02:53:39;11.35;;;9.60;;
35110;SDS011;21290;50.158;8.658;2023-06-22T02:56:05;11.10;;;9.20;;
35110;SDS011;21290;50.158;8.658;2023-06-22T02:58:32;13.35;;;9.20;;
35110;SDS011;21290;50.158;8.658;2023-06-22T03:01:05;10.43;;;9.43;;
35110;SDS011;21290;50.158;8.658;2023-06-22T03:03:32;15.13;;;9.45;;
35110;SDS011;21290;50.158;8.658;2023-06-22T03:05:59;13.10;;;9.40;;
35110;SDS011;21290;50.158;8.658;2023-06-22T03:08:28;11.82;;;9.60;;
35110;SDS011;21290;50.158;8.658;2023-06-22T03:10:55;12.00;;;9.10;;
35110;SDS011;21290;50.158;8.658;2023-06-22T03:13:22;11.20;;;9.38;;
35110;SDS011;21290;50.158;8.658;2023-06-22T03:15:49;12.43;;;9.07;;
35110;SDS011;21290;50.158;8.658;2023-06-22T03:18:15;12.15;;;9.52;;
35110;SDS011;21290;50.158;8.658;2023-06-22T03:20:42;10.55;;;9.52;;
35110;SDS011;21290;50.158;8.658;2023-06-22T03:23:09;10.45;;;9.38;;
35110;SDS011;21290;50.158;8.658;2023-06-22T03:25:35;12.57;;;9.85;;
35110;SDS011;21290;50.158;8.658;2023-06-22T03:28:02;11.68;;;9.88;;
35110;SDS011;21290;50.158;8.658;2023-06-22T03:30:29;16.77;;;9.95;;
35110;SDS011;21290;50.158;8.658;2023-06-22T03:32:56;13.52;;;9.55;;
35110;SDS011;21290;50.158;8.658;2023-06-22T03:35:22;14.30;;;10.20;;
35110;SDS011;21290;50.158;8.658;2023-06-22T03:37:49;12.43;;;9.70;;
35110;SDS011;21290;50.158;8.658;2023-06-22T03:40:16;10.23;;;9.23;;
35110;SDS011;21290;50.158;8.658;2023-06-22T03:42:42;13.52;;;10.18;;
35110;SDS011;21290;50.158;8.658;2023-06-22T03:45:09;11.65;;;9.88;;
35110;SDS011;21290;50.158;8.658;2023-06-22T03:47:36;11.40;;;10.25;;
35110;SDS011;21290;50.158;8.658;2023-06-22T03:50:03;10.68;;;9.63;;
35110;SDS011;21290;50.158;8.658;2023-06-22T03:52:30;14.38;;;9.70;;
35110;SDS011;21290;50.158;8.658;2023-06-22T03:54:57;10.02;;;9.07;;
35110;SDS011;21290;50.158;8.658;2023-06-22T03:57:24;12.00;;;10.05;;
35110;SDS011;21290;50.158;8.658;2023-06-22T03:59:51;13.00;;;10.13;;
35110;SDS011;21290;50.158;8.658;2023-06-22T04:02:17;10.48;;;9.38;;
35110;SDS011;21290;50.158;8.658;2023-06-22T04:04:44;10.45;;;8.75;;
35110;SDS011;21290;50.158;8.658;2023-06-22T04:07:11;10.40;;;9.30;;
35110;SDS011;21290;50.158;8.658;2023-06-22T04:09:37;17.83;;;9.50;;
35110;SDS011;21290;50.158;8.658;2023-06-22T04:12:04;10.27;;;9.02;;
35110;SDS011;21290;50.158;8.658;2023-06-22T04:14:31;10.57;;;9.40;;
35110;SDS011;21290;50.158;8.658;2023-06-22T04:16:58;12.35;;;9.48;;
35110;SDS011;21290;50.158;8.658;2023-06-22T04:19:25;10.73;;;9.43;;
35110;SDS011;21290;50.158;8.658;2023-06-22T04:21:51;11.98;;;9.63;;
35110;SDS011;21290;50.158;8.658;2023-06-22T04:24:18;11.80;;;9.70;;
35110;SDS011;21290;50.158;8.658;2023-06-22T04:26:45;13.63;;;10.52;;
35110;SDS011;21290;50.158;8.658;2023-06-22T04:29:13;10.20;;;8.68;;
35110;SDS011;21290;50.158;8.658;2023-06-22T04:31:40;10.85;;;9.10;;
35110;SDS011;21290;50.158;8.658;2023-06-22T04:34:07;12.48;;;9.35;;
35110;SDS011;21290;50.158;8.658;2023-06-22T04:36:35;22.38;;;8.65;;
35110;SDS011;21290;50.158;8.658;2023-06-22T04:41:38;9.77;;;8.77;;
35110;SDS011;21290;50.158;8.658;2023-06-22T04:44:12;10.45;;;8.77;;
35110;SDS011;21290;50.158;8.658;2023-06-22T04:46:39;34.15;;;18.17;;
35110;SDS011;21290;50.158;8.658;2023-06-22T04:49:06;24.63;;;12.60;;
35110;SDS011;21290;50.158;8.658;2023-06-22T04:51:40;10.70;;;9.05;;
35110;SDS011;21290;50.158;8.658;2023-06-22T04:54:08;10.73;;;8.95;;
35110;SDS011;21290;50.158;8.658;2023-06-22T04:56:35;9.70;;;8.50;;
35110;SDS011;21290;50.158;8.658;2023-06-22T04:59:02;16.90;;;9.80;;
35110;SDS011;21290;50.158;8.658;2023-06-22T05:01:29;12.48;;;8.43;;
35110;SDS011;21290;50.158;8.658;2023-06-22T05:04:00;16.25;;;9.70;;
35110;SDS011;21290;50.158;8.658;2023-06-22T05:06:29;13.80;;;9.40;;
35110;SDS011;21290;50.158;8.658;2023-06-22T05:08:56;13.10;;;8.63;;
35110;SDS011;21290;50.158;8.658;2023-06-22T05:11:24;12.95;;;8.00;;
35110;SDS011;21290;50.158;8.658;2023-06-22T05:13:52;13.10;;;8.38;;
35110;SDS011;21290;50.158;8.658;2023-06-22T05:16:19;12.52;;;8.85;;
35110;SDS011;21290;50.158;8.658;2023-06-22T05:18:54;11.13;;;9.00;;
35110;SDS011;21290;50.158;8.658;2023-06-22T05:21:25;12.25;;;9.30;;
35110;SDS011;21290;50.158;8.658;2023-06-22T05:23:53;14.52;;;8.65;;
35110;SDS011;21290;50.158;8.658;2023-06-22T05:26:20;21.55;;;8.60;;
35110;SDS011;21290;50.158;8.658;2023-06-22T05:28:47;14.27;;;8.63;;
35110;SDS011;21290;50.158;8.658;2023-06-22T05:31:15;11.57;;;8.32;;
35110;SDS011;21290;50.158;8.658;2023-06-22T05:33:43;13.15;;;8.82;;
35110;SDS011;21290;50.158;8.658;2023-06-22T05:36:10;11.65;;;8.73;;
35110;SDS011;21290;50.158;8.658;2023-06-22T05:38:36;13.93;;;8.32;;
35110;SDS011;21290;50.158;8.658;2023-06-22T05:41:03;10.90;;;8.90;;
35110;SDS011;21290;50.158;8.658;2023-06-22T05:43:30;19.38;;;9.43;;
35110;SDS011;21290;50.158;8.658;2023-06-22T05:45:57;16.33;;;8.80;;
35110;SDS011;21290;50.158;8.658;2023-06-22T05:48:24;14.98;;;8.95;;
35110;SDS011;21290;50.158;8.658;2023-06-22T05:50:51;13.93;;;9.13;;
35110;SDS011;21290;50.158;8.658;2023-06-22T05:53:19;16.25;;;9.02;;
35110;SDS011;21290;50.158;8.658;2023-06-22T05:55:45;11.05;;;8.93;;
35110;SDS011;21290;50.158;8.658;2023-06-22T05:58:12;13.40;;;7.88;;
35110;SDS011;21290;50.158;8.658;2023-06-22T06:00:40;17.63;;;8.88;;
35110;SDS011;21290;50.158;8.658;2023-06-22T06:03:07;10.00;;;7.50;;
35110;SDS011;21290;50.158;8.658;2023-06-22T06:05:35;15.27;;;8.30;;
35110;SDS011;21290;50.158;8.658;2023-06-22T06:08:03;10.82;;;8.45;;
35110;SDS011;21290;50.158;8.658;2023-06-22T06:10:32;9.48;;;7.65;;
35110;SDS011;21290;50.158;8.658;2023-06-22T06:12:59;8.98;;;7.35;;
35110;SDS011;21290;50.158;8.658;2023-06-22T06:15:30;12.77;;;8.20;;
35110;SDS011;21290;50.158;8.658;2023-06-22T06:17:58;11.15;;;8.18;;
35110;SDS011;21290;50.158;8.658;2023-06-22T06:20:25;10.25;;;8.20;;
35110;SDS011;21290;50.158;8.658;2023-06-22T06:22:54;10.55;;;8.10;;
35110;SDS011;21290;50.158;8.658;2023-06-22T06:25:22;11.65;;;8.48;;
35110;SDS011;21290;50.158;8.658;2023-06-22T06:27:49;9.13;;;7.85;;
35110;SDS011;21290;50.158;8.658;2023-06-22T06:30:18;17.58;;;8.20;;
35110;SDS011;21290;50.158;8.658;2023-06-22T06:32:45;15.07;;;8.38;;
35110;SDS011;21290;50.158;8.658;2023-06-22T06:35:13;9.77;;;7.57;;
35110;SDS011;21290;50.158;8.658;2023-06-22T06:37:42;11.02;;;7.97;;
35110;SDS011;21290;50.158;8.658;2023-06-22T06:40:10;12.80;;;8.93;;
35110;SDS011;21290;50.158;8.658;2023-06-22T06:42:39;14.45;;;8.18;;
35110;SDS011;21290;50.158;8.658;2023-06-22T06:45:08;14.73;;;7.72;;
35110;SDS011;21290;50.158;8.658;2023-06-22T06:47:35;10.20;;;7.63;;
35110;SDS011;21290;50.158;8.658;2023-06-22T06:50:03;13.60;;;8.02;;
35110;SDS011;21290;50.158;8.658;2023-06-22T06:52:30;11.73;;;7.85;;
35110;SDS011;21290;50.158;8.658;2023-06-22T06:54:57;13.02;;;8.32;;
35110;SDS011;21290;50.158;8.658;2023-06-22T06:57:24;8.73;;;7.50;;
35110;SDS011;21290;50.158;8.658;2023-06-22T06:59:55;14.90;;;8.45;;
35110;SDS011;21290;50.158;8.658;2023-06-22T07:02:22;12.13;;;7.75;;
35110;SDS011;21290;50.158;8.658;2023-06-22T07:04:50;9.98;;;7.35;;
35110;SDS011;21290;50.158;8.658;2023-06-22T07:07:16;14.45;;;8.23;;
35110;SDS011;21290;50.158;8.658;2023-06-22T07:09:43;12.07;;;7.82;;
35110;SDS011;21290;50.158;8.658;2023-06-22T07:12:10;9.25;;;7.38;;
35110;SDS011;21290;50.158;8.658;2023-06-22T07:14:36;8.90;;;7.30;;
35110;SDS011;21290;50.158;8.658;2023-06-22T07:17:03;12.63;;;7.28;;
35110;SDS011;21290;50.158;8.658;2023-06-22T07:19:30;10.27;;;7.47;;
35110;SDS011;21290;50.158;8.658;2023-06-22T07:21:57;10.48;;;7.68;;
35110;SDS011;21290;50.158;8.658;2023-06-22T07:24:24;14.55;;;8.25;;
35110;SDS011;21290;50.158;8.658;2023-06-22T07:26:51;8.55;;;7.55;;
35110;SDS011;21290;50.158;8.658;2023-06-22T07:29:18;11.23;;;7.32;;
35110;SDS011;21290;50.158;8.658;2023-06-22T07:31:47;8.70;;;6.55;;
35110;SDS011;21290;50.158;8.658;2023-06-22T07:34:14;10.77;;;6.60;;
35110;SDS011;21290;50.158;8.658;2023-06-22T07:36:40;11.07;;;6.70;;
35110;SDS011;21290;50.158;8.658;2023-06-22T07:39:07;14.82;;;7.38;;
35110;SDS011;21290;50.158;8.658;2023-06-22T07:41:33;11.82;;;6.72;;
35110;SDS011;21290;50.158;8.658;2023-06-22T07:44:01;10.77;;;6.97;;
35110;SDS011;21290;50.158;8.658;2023-06-22T07:46:28;13.23;;;7.10;;
35110;SDS011;21290;50.158;8.658;2023-06-22T07:48:56;11.70;;;7.38;;
35110;SDS011;21290;50.158;8.658;2023-06-22T07:51:23;11.65;;;6.85;;
35110;SDS011;21290;50.158;8.658;2023-06-22T07:53:50;9.00;;;6.95;;
35110;SDS011;21290;50.158;8.658;2023-06-22T07:56:16;7.88;;;7.07;;
35110;SDS011;21290;50.158;8.658;2023-06-22T07:58:47;13.65;;;6.63;;
35110;SDS011;21290;50.158;8.658;2023-06-22T08:01:14;8.93;;;6.35;;
35110;SDS011;21290;50.158;8.658;2023-06-22T08:03:41;11.55;;;6.47;;
35110;SDS011;21290;50.158;8.658;2023-06-22T08:06:08;7.43;;;6.65;;
35110;SDS011;21290;50.158;8.658;2023-06-22T08:08:35;8.95;;;6.40;;
35110;SDS011;21290;50.158;8.658;2023-06-22T08:11:02;10.52;;;6.63;;
35110;SDS011;21290;50.158;8.658;2023-06-22T08:13:29;10.25;;;6.03;;
35110;SDS011;21290;50.158;8.658;2023-06-22T08:15:56;8.40;;;5.80;;
35110;SDS011;21290;50.158;8.658;2023-06-22T08:18:22;6.53;;;5.45;;
35110;SDS011;21290;50.158;8.658;2023-06-22T08:20:49;7.68;;;5.28;;
35110;SDS011;21290;50.158;8.658;2023-06-22T08:23:16;7.32;;;5.32;;
35110;SDS011;21290;50.158;8.658;2023-06-22T08:25:43;8.18;;;5.35;;
35110;SDS011;21290;50.158;8.658;2023-06-22T08:28:10;7.03;;;5.20;;
35110;SDS011;21290;50.158;8.658;2023-06-22T08:30:37;8.25;;;4.95;;
35110;SDS011;21290;50.158;8.658;2023-06-22T08:33:03;6.55;;;5.20;;
35110;SDS011;21290;50.158;8.658;2023-06-22T08:35:30;8.40;;;5.35;;
35110;SDS011;21290;50.158;8.658;2023-06-22T08:37:57;7.63;;;4.68;;
35110;SDS011;21290;50.158;8.658;2023-06-22T08:40:25;6.38;;;4.25;;
35110;SDS011;21290;50.158;8.658;2023-06-22T08:42:52;6.40;;;5.05;;
35110;SDS011;21290;50.158;8.658;2023-06-22T08:45:18;8.32;;;4.93;;
35110;SDS011;21290;50.158;8.658;2023-06-22T08:47:45;6.30;;;4.05;;
35110;SDS011;21290;50.158;8.658;2023-06-22T08:50:12;6.78;;;4.38;;
35110;SDS011;21290;50.158;8.658;2023-06-22T08:52:39;6.30;;;4.75;;
35110;SDS011;21290;50.158;8.658;2023-06-22T08:55:09;5.88;;;4.70;;
35110;SDS011;21290;50.158;8.658;2023-06-22T08:57:36;6.50;;;4.90;;
35110;SDS011;21290;50.158;8.658;2023-06-22T09:00:06;6.65;;;4.93;;
35110;SDS011;21290;50.158;8.658;2023-06-22T09:02:44;10.15;;;4.55;;
35110;SDS011;21290;50.158;8.658;2023-06-22T09:05:11;7.07;;;5.15;;
35110;SDS011;21290;50.158;8.658;2023-06-22T09:07:38;5.68;;;4.75;;
35110;SDS011;21290;50.158;8.658;2023-06-22T09:10:05;5.60;;;4.50;;
35110;SDS011;21290;50.158;8.658;2023-06-22T09:12:32;8.75;;;4.28;;
35110;SDS011;21290;50.158;8.658;2023-06-22T09:14:59;7.13;;;4.53;;
35110;SDS011;21290;50.158;8.658;2023-06-22T09:17:27;6.53;;;5.00;;
35110;SDS011;21290;50.158;8.658;2023-06-22T09:19:53;5.90;;;4.60;;
35110;SDS011;21290;50.158;8.658;2023-06-22T09:22:20;6.68;;;4.75;;
35110;SDS011;21290;50.158;8.658;2023-06-22T09:24:47;6.10;;;4.63;;
35110;SDS011;21290;50.158;8.658;2023-06-22T09:27:14;8.20;;;4.90;;
35110;SDS011;21290;50.158;8.658;2023-06-22T09:29:40;10.45;;;5.60;;
35110;SDS011;21290;50.158;8.658;2023-06-22T09:32:07;6.75;;;4.82;;
35110;SDS011;21290;50.158;8.658;2023-06-22T09:34:34;9.23;;;5.40;;
35110;SDS011;21290;50.158;8.658;2023-06-22T09:37:01;7.55;;;4.65;;
35110;SDS011;21290;50.158;8.658;2023-06-22T09:39:28;5.88;;;4.60;;
35110;SDS011;21290;50.158;8.658;2023-06-22T09:41:54;6.93;;;4.95;;
35110;SDS011;21290;50.158;8.658;2023-06-22T09:44:21;6.70;;;5.03;;
35110;SDS011;21290;50.158;8.658;2023-06-22T09:46:48;6.47;;;5.18;;
35110;SDS011;21290;50.158;8.658;2023-06-22T09:49:14;5.82;;;4.57;;
35110;SDS011;21290;50.158;8.658;2023-06-22T09:51:41;8.45;;;5.00;;
35110;SDS011;21290;50.158;8.658;2023-06-22T09:54:08;7.28;;;4.80;;
35110;SDS011;21290;50.158;8.658;2023-06-22T09:56:34;7.00;;;4.70;;
35110;SDS011;21290;50.158;8.658;2023-06-22T09:59:01;6.35;;;4.60;;
35110;SDS011;21290;50.158;8.658;2023-06-22T10:01:43;6.93;;;4.50;;
35110;SDS011;21290;50.158;8.658;2023-06-22T10:04:10;7.47;;;4.93;;
35110;SDS011;21290;50.158;8.658;2023-06-22T10:06:37;6.15;;;4.28;;
35110;SDS011;21290;50.158;8.658;2023-06-22T10:09:07;5.43;;;4.60;;
35110;SDS011;21290;50.158;8.658;2023-06-22T10:11:34;9.35;;;4.75;;
35110;SDS011;21290;50.158;8.658;2023-06-22T10:14:01;6.37;;;4.50;;
35110;SDS011;21290;50.158;8.658;2023-06-22T10:16:30;5.32;;;4.60;;
35110;SDS011;21290;50.158;8.658;2023-06-22T10:18:57;6.28;;;4.43;;
35110;SDS011;21290;50.158;8.658;2023-06-22T10:21:24;9.32;;;4.60;;
35110;SDS011;21290;50.158;8.658;2023-06-22T10:23:53;7.25;;;4.50;;
35110;SDS011;21290;50.158;8.658;2023-06-22T10:26:19;6.25;;;4.38;;
35110;SDS011;21290;50.158;8.658;2023-06-22T10:28:46;6.85;;;4.43;;
35110;SDS011;21290;50.158;8.658;2023-06-22T10:31:12;8.65;;;4.25;;
35110;SDS011;21290;50.158;8.658;2023-06-22T10:33:40;5.53;;;4.40;;
35110;SDS011;21290;50.158;8.658;2023-06-22T10:36:10;5.30;;;4.38;;
35110;SDS011;21290;50.158;8.658;2023-06-22T10:38:37;7.03;;;4.75;;
35110;SDS011;21290;50.158;8.658;2023-06-22T10:41:03;6.97;;;4.65;;
35110;SDS011;21290;50.158;8.658;2023-06-22T10:43:30;7.28;;;4.85;;
35110;SDS011;21290;50.158;8.658;2023-06-22T10:45:57;5.50;;;4.53;;
35110;SDS011;21290;50.158;8.658;2023-06-22T10:48:23;7.43;;;4.47;;
35110;SDS011;21290;50.158;8.658;2023-06-22T10:50:50;7.45;;;4.40;;
35110;SDS011;21290;50.158;8.658;2023-06-22T10:53:16;9.50;;;4.72;;
35110;SDS011;21290;50.158;8.658;2023-06-22T10:55:43;5.47;;;4.38;;
35110;SDS011;21290;50.158;8.658;2023-06-22T10:58:22;7.40;;;4.22;;
35110;SDS011;21290;50.158;8.658;2023-06-22T11:00:49;7.68;;;4.65;;
35110;SDS011;21290;50.158;8.658;2023-06-22T11:03:16;5.95;;;4.15;;
35110;SDS011;21290;50.158;8.658;2023-06-22T11:05:43;5.85;;;3.92;;
35110;SDS011;21290;50.158;8.658;2023-06-22T11:08:09;6.10;;;3.90;;
35110;SDS011;21290;50.158;8.658;2023-06-22T11:10:36;8.75;;;3.97;;
35110;SDS011;21290;50.158;8.658;2023-06-22T11:13:03;6.07;;;4.22;;
35110;SDS011;21290;50.158;8.658;2023-06-22T11:17:58;5.72;;;3.97;;
35110;SDS011;21290;50.158;8.658;2023-06-22T11:20:24;4.53;;;3.70;;
35110;SDS011;21290;50.158;8.658;2023-06-22T11:22:51;7.40;;;3.80;;
35110;SDS011;21290;50.158;8.658;2023-06-22T11:25:18;7.70;;;3.95;;
35110;SDS011;21290;50.158;8.658;2023-06-22T11:27:44;5.90;;;3.83;;
35110;SDS011;21290;50.158;8.658;2023-06-22T11:30:11;9.90;;;4.43;;
35110;SDS011;21290;50.158;8.658;2023-06-22T11:32:37;8.73;;;4.30;;
35110;SDS011;21290;50.158;8.658;2023-06-22T11:35:04;10.20;;;4.65;;
35110;SDS011;21290;50.158;8.658;2023-06-22T11:37:31;11.23;;;3.85;;
35110;SDS011;21290;50.158;8.658;2023-06-22T11:39:58;8.05;;;4.00;;
35110;SDS011;21290;50.158;8.658;2023-06-22T11:42:32;9.70;;;4.18;;
35110;SDS011;21290;50.158;8.658;2023-06-22T11:44:59;8.35;;;4.45;;
35110;SDS011;21290;50.158;8.658;2023-06-22T11:47:25;8.52;;;4.05;;
35110;SDS011;21290;50.158;8.658;2023-06-22T11:49:52;8.60;;;4.60;;
35110;SDS011;21290;50.158;8.658;2023-06-22T11:52:19;10.48;;;4.50;;
35110;SDS011;21290;50.158;8.658;2023-06-22T11:54:46;9.77;;;4.70;;
35110;SDS011;21290;50.158;8.658;2023-06-22T11:57:12;9.35;;;4.78;;
35110;SDS011;21290;50.158;8.658;2023-06-22T11:59:39;12.20;;;5.47;;
35110;SDS011;21290;50.158;8.658;2023-06-22T12:02:06;9.95;;;5.13;;
35110;SDS011;21290;50.158;8.658;2023-06-22T12:04:33;7.95;;;5.15;;
35110;SDS011;21290;50.158;8.658;2023-06-22T12:07:00;9.52;;;5.15;;
35110;SDS011;21290;50.158;8.658;2023-06-22T12:09:27;8.52;;;5.45;;
35110;SDS011;21290;50.158;8.658;2023-06-22T12:11:54;8.60;;;5.68;;
35110;SDS011;21290;50.158;8.658;2023-06-22T12:14:20;10.35;;;5.75;;
35110;SDS011;21290;50.158;8.658;2023-06-22T12:16:47;8.38;;;5.30;;
35110;SDS011;21290;50.158;8.658;2023-06-22T12:19:14;11.00;;;5.90;;
35110;SDS011;21290;50.158;8.658;2023-06-22T12:21:40;8.80;;;5.65;;
35110;SDS011;21290;50.158;8.658;2023-06-22T12:24:08;9.98;;;5.97;;
35110;SDS011;21290;50.158;8.658;2023-06-22T12:26:34;12.13;;;5.70;;
35110;SDS011;21290;50.158;8.658;2023-06-22T12:29:01;10.38;;;5.75;;
35110;SDS011;21290;50.158;8.658;2023-06-22T12:31:27;17.77;;;5.82;;
35110;SDS011;21290;50.158;8.658;2023-06-22T12:33:55;9.93;;;5.57;;
35110;SDS011;21290;50.158;8.658;2023-06-22T12:36:21;11.23;;;5.95;;
35110;SDS011;21290;50.158;8.658;2023-06-22T12:38:48;12.88;;;6.38;;
35110;SDS011;21290;50.158;8.658;2023-06-22T12:41:14;11.77;;;6.50;;
35110;SDS011;21290;50.158;8.658;2023-06-22T12:43:41;12.20;;;6.18;;
35110;SDS011;21290;50.158;8.658;2023-06-22T12:46:09;11.48;;;6.32;;
35110;SDS011;21290;50.158;8.658;2023-06-22T12:48:36;12.40;;;5.63;;
35110;SDS011;21290;50.158;8.658;2023-06-22T12:51:08;12.40;;;5.70;;
35110;SDS011;21290;50.158;8.658;2023-06-22T12:53:35;9.97;;;5.70;;
35110;SDS011;21290;50.158;8.658;2023-06-22T12:56:02;14.93;;;5.88;;
35110;SDS011;21290;50.158;8.658;2023-06-22T12:58:28;9.02;;;6.20;;
35110;SDS011;21290;50.158;8.658;2023-06-22T13:00:55;13.50;;;6.72;;
35110;SDS011;21290;50.158;8.658;2023-06-22T13:03:22;9.85;;;6.03;;
35110;SDS011;21290;50.158;8.658;2023-06-22T13:05:51;14.07;;;6.53;;
35110;SDS011;21290;50.158;8.658;2023-06-22T13:08:18;15.07;;;6.90;;
35110;SDS011;21290;50.158;8.658;2023-06-22T13:10:44;9.85;;;6.28;;
35110;SDS011;21290;50.158;8.658;2023-06-22T13:13:11;11.73;;;6.28;;
35110;SDS011;21290;50.158;8.658;2023-06-22T13:15:37;11.07;;;5.70;;
35110;SDS011;21290;50.158;8.658;2023-06-22T13:18:04;11.52;;;6.70;;
35110;SDS011;21290;50.158;8.658;2023-06-22T13:20:31;10.52;;;6.05;;
35110;SDS011;21290;50.158;8.658;2023-06-22T13:22:57;12.90;;;5.68;;
35110;SDS011;21290;50.158;8.658;2023-06-22T13:25:24;15.27;;;6.57;;
35110;SDS011;21290;50.158;8.658;2023-06-22T13:27:53;13.70;;;6.47;;
35110;SDS011;21290;50.158;8.658;2023-06-22T13:30:19;11.43;;;6.40;;
35110;SDS011;21290;50.158;8.658;2023-06-22T13:32:46;16.45;;;6.40;;
35110;SDS011;21290;50.158;8.658;2023-06-22T13:35:13;13.38;;;6.20;;
35110;SDS011;21290;50.158;8.658;2023-06-22T13:37:57;10.65;;;6.07;;
35110;SDS011;21290;50.158;8.658;2023-06-22T13:40:41;17.70;;;6.57;;
35110;SDS011;21290;50.158;8.658;2023-06-22T13:43:08;13.57;;;6.15;;
35110;SDS011;21290;50.158;8.658;2023-06-22T13:45:34;14.75;;;6.63;;
35110;SDS011;21290;50.158;8.658;2023-06-22T13:48:19;10.60;;;6.45;;
35110;SDS011;21290;50.158;8.658;2023-06-22T13:51:03;10.48;;;6.18;;
35110;SDS011;21290;50.158;8.658;2023-06-22T13:53:30;15.82;;;6.18;;
35110;SDS011;21290;50.158;8.658;2023-06-22T13:55:56;11.07;;;6.03;;
35110;SDS011;21290;50.158;8.658;2023-06-22T13:58:23;11.85;;;6.20;;
35110;SDS011;21290;50.158;8.658;2023-06-22T14:00:50;12.32;;;6.55;;
35110;SDS011;21290;50.158;8.658;2023-06-22T14:03:18;12.90;;;5.95;;
35110;SDS011;21290;50.158;8.658;2023-06-22T14:05:45;16.23;;;6.57;;
35110;SDS011;21290;50.158;8.658;2023-06-22T14:08:12;14.20;;;7.30;;
35110;SDS011;21290;50.158;8.658;2023-06-22T14:10:59;12.43;;;6.38;;
35110;SDS011;21290;50.158;8.658;2023-06-22T14:13:26;18.95;;;6.75;;
35110;SDS011;21290;50.158;8.658;2023-06-22T14:15:52;12.48;;;5.88;;
35110;SDS011;21290;50.158;8.658;2023-06-22T14:18:20;11.32;;;6.30;;
35110;SDS011;21290;50.158;8.658;2023-06-22T14:20:48;9.68;;;6.18;;
35110;SDS011;21290;50.158;8.658;2023-06-22T14:23:15;15.60;;;6.25;;
35110;SDS011;21290;50.158;8.658;2023-06-22T14:25:41;14.73;;;6.22;;
35110;SDS011;21290;50.158;8.658;2023-06-22T14:28:08;11.13;;;6.70;;
35110;SDS011;21290;50.158;8.658;2023-06-22T14:30:35;13.95;;;6.55;;
35110;SDS011;21290;50.158;8.658;2023-06-22T14:33:01;10.75;;;6.10;;
35110;SDS011;21290;50.158;8.658;2023-06-22T14:35:28;13.95;;;6.13;;
35110;SDS011;21290;50.158;8.658;2023-06-22T14:37:55;12.38;;;6.20;;
35110;SDS011;21290;50.158;8.658;2023-06-22T14:40:21;12.13;;;6.03;;
35110;SDS011;21290;50.158;8.658;2023-06-22T14:42:52;14.57;;;4.75;;
35110;SDS011;21290;50.158;8.658;2023-06-22T14:45:18;14.05;;;5.13;;
35110;SDS011;21290;50.158;8.658;2023-06-22T14:47:45;10.30;;;4.55;;
35110;SDS011;21290;50.158;8.658;2023-06-22T14:50:11;11.95;;;4.30;;
35110;SDS011;21290;50.158;8.658;2023-06-22T14:52:38;17.25;;;4.35;;
35110;SDS011;21290;50.158;8.658;2023-06-22T14:55:05;16.02;;;5.03;;
35110;SDS011;21290;50.158;8.658;2023-06-22T14:57:32;14.38;;;4.60;;